createdAt,value
2019-05-03T00:00:05.896Z,9.40
2019-05-03T00:02:56.009Z,9.30
2019-05-03T00:05:38.047Z,9.10
2019-05-03T00:08:08.590Z,9.10
2019-05-03T00:10:38.480Z,9.00
2019-05-03T00:13:08.333Z,8.90
2019-05-03T00:15:56.150Z,8.90
2019-05-03T00:18:25.704Z,8.80
2019-05-03T00:20:55.232Z,8.80
2019-05-03T00:23:24.828Z,8.60
2019-05-03T00:25:54.361Z,8.60
2019-05-03T00:28:23.883Z,8.60
2019-05-03T00:30:53.419Z,8.60
2019-05-03T00:33:23.139Z,8.50
2019-05-03T00:36:14.575Z,8.50
2019-05-03T00:38:44.211Z,8.50
2019-05-03T00:41:13.791Z,8.50
2019-05-03T00:43:43.355Z,8.50
2019-05-03T00:46:12.923Z,8.40
2019-05-03T00:48:43.017Z,8.30
2019-05-03T00:51:13.797Z,8.30
2019-05-03T00:53:43.343Z,8.40
2019-05-03T00:56:12.890Z,8.50
2019-05-03T00:58:53.144Z,8.60
2019-05-03T01:01:22.792Z,8.60
2019-05-03T01:03:52.823Z,8.60
2019-05-03T01:06:22.495Z,8.70
2019-05-03T01:08:52.418Z,8.60
2019-05-03T01:11:22.393Z,8.60
2019-05-03T01:13:52.263Z,8.70
2019-05-03T01:16:22.762Z,8.50
2019-05-03T01:18:52.537Z,8.40
2019-05-03T01:21:22.729Z,8.30
2019-05-03T01:23:52.751Z,8.30
2019-05-03T01:26:22.820Z,8.20
2019-05-03T01:28:52.682Z,8.20
2019-05-03T01:31:23.325Z,8.20
2019-05-03T01:33:53.036Z,8.10
2019-05-03T01:36:23.645Z,8.00
2019-05-03T01:38:53.308Z,8.00
2019-05-03T01:41:23.876Z,7.90
2019-05-03T01:43:53.509Z,7.90
2019-05-03T01:46:23.141Z,7.80
2019-05-03T01:49:08.779Z,7.80
2019-05-03T01:51:55.889Z,7.80
2019-05-03T01:54:25.690Z,7.80
2019-05-03T01:56:58.983Z,7.70
2019-05-03T01:59:27.359Z,7.70
2019-05-03T02:02:07.437Z,7.70
2019-05-03T02:04:43.677Z,7.80
2019-05-03T02:07:13.254Z,7.70
2019-05-03T02:09:42.893Z,7.70
2019-05-03T02:12:12.780Z,7.50
2019-05-03T02:14:42.453Z,7.50
2019-05-03T02:17:12.403Z,7.50
2019-05-03T02:19:42.283Z,7.40
2019-05-03T02:22:12.166Z,7.30
2019-05-03T02:24:42.360Z,7.30
2019-05-03T02:27:12.711Z,7.30
2019-05-03T02:29:42.531Z,7.20
2019-05-03T02:32:13.258Z,7.20
2019-05-03T02:34:43.903Z,7.30
2019-05-03T02:37:14.145Z,7.20
2019-05-03T02:39:43.825Z,7.30
2019-05-03T02:42:15.910Z,7.20
2019-05-03T02:44:46.172Z,7.00
2019-05-03T02:47:27.615Z,7.00
2019-05-03T02:50:00.843Z,6.90
2019-05-03T02:52:37.730Z,6.80
2019-05-03T02:55:09.873Z,6.70
2019-05-03T02:57:39.590Z,6.70
2019-05-03T03:00:11.309Z,6.80
2019-05-03T03:02:41.260Z,6.80
2019-05-03T03:05:11.960Z,6.80
2019-05-03T03:07:46.017Z,6.80
2019-05-03T03:10:17.341Z,6.70
2019-05-03T03:12:50.465Z,6.70
2019-05-03T03:15:19.971Z,6.60
2019-05-03T03:17:55.808Z,6.50
2019-05-03T03:20:25.331Z,6.50
2019-05-03T03:22:56.739Z,6.40
2019-05-03T03:25:31.161Z,6.40
2019-05-03T03:28:05.185Z,6.40
2019-05-03T03:31:17.329Z,6.30
2019-05-03T03:33:47.595Z,6.30
2019-05-03T03:36:42.227Z,6.20
2019-05-03T03:38:46.550Z,6.10
2019-05-03T03:41:16.987Z,6.10
2019-05-03T03:43:48.375Z,6.10
2019-05-03T03:46:20.189Z,6.20
2019-05-03T03:48:52.443Z,6.20
2019-05-03T03:51:26.155Z,6.10
2019-05-03T03:53:56.715Z,6.10
2019-05-03T03:56:31.105Z,6.10
2019-05-03T03:59:00.803Z,6.10
2019-05-03T04:01:30.515Z,6.10
2019-05-03T04:04:00.188Z,6.00
2019-05-03T04:06:42.268Z,6.00
2019-05-03T04:09:11.907Z,6.00
2019-05-03T04:11:41.904Z,6.00
2019-05-03T04:14:16.273Z,6.00
2019-05-03T04:17:08.855Z,6.00
2019-05-03T04:19:40.420Z,6.00
2019-05-03T04:22:10.148Z,6.00
2019-05-03T04:24:45.802Z,6.10
2019-05-03T04:27:23.432Z,6.00
2019-05-03T04:29:51.632Z,6.10
2019-05-03T04:32:25.611Z,6.00
2019-05-03T04:34:55.929Z,6.10
2019-05-03T04:37:26.625Z,6.10
2019-05-03T04:39:56.463Z,6.10
2019-05-03T04:42:26.048Z,6.10
2019-05-03T04:44:56.205Z,6.10
2019-05-03T04:47:26.873Z,6.10
2019-05-03T04:49:57.534Z,6.20
2019-05-03T04:52:27.637Z,6.30
2019-05-03T04:55:02.662Z,6.30
2019-05-03T04:57:45.905Z,6.20
2019-05-03T05:00:15.799Z,6.30
2019-05-03T05:02:45.745Z,6.30
2019-05-03T05:05:15.833Z,6.30
2019-05-03T05:07:45.873Z,6.30
2019-05-03T05:10:15.942Z,6.20
2019-05-03T05:12:45.827Z,6.20
2019-05-03T05:15:16.155Z,6.30
2019-05-03T05:18:05.795Z,6.40
2019-05-03T05:20:45.941Z,6.50
2019-05-03T05:23:15.635Z,6.60
2019-05-03T05:25:51.497Z,6.70
2019-05-03T05:28:30.585Z,6.90
2019-05-03T05:31:00.222Z,7.00
2019-05-03T05:33:29.901Z,7.00
2019-05-03T05:35:59.497Z,7.00
2019-05-03T05:38:29.145Z,7.10
2019-05-03T05:40:58.718Z,7.20
2019-05-03T05:43:28.280Z,7.30
2019-05-03T05:45:58.988Z,7.30
2019-05-03T05:48:36.739Z,7.20
2019-05-03T05:51:06.305Z,7.20
2019-05-03T05:53:36.012Z,7.30
2019-05-03T05:56:39.796Z,7.30
2019-05-03T05:59:14.856Z,7.40
2019-05-03T06:01:49.846Z,7.40
2019-05-03T06:04:19.414Z,7.60
2019-05-03T06:07:04.653Z,7.60
2019-05-03T06:09:40.515Z,7.60
2019-05-03T06:12:21.775Z,7.70
2019-05-03T06:14:55.458Z,7.60
2019-05-03T06:17:34.837Z,7.50
2019-05-03T06:20:30.384Z,7.60
2019-05-03T06:23:05.318Z,7.70
2019-05-03T06:25:40.731Z,7.70
2019-05-03T06:28:20.634Z,7.70
2019-05-03T06:31:09.776Z,7.80
2019-05-03T06:33:39.346Z,7.80
2019-05-03T06:36:09.076Z,7.90
2019-05-03T06:38:38.648Z,8.10
2019-05-03T06:41:08.221Z,8.10
2019-05-03T06:43:39.621Z,7.90
2019-05-03T06:46:09.081Z,7.90
2019-05-03T06:48:38.661Z,8.10
2019-05-03T06:51:10.531Z,8.30
2019-05-03T06:53:41.859Z,8.20
2019-05-03T06:56:11.789Z,8.30
2019-05-03T06:58:41.691Z,8.30
2019-05-03T07:01:19.378Z,8.40
2019-05-03T07:03:54.891Z,8.50
2019-05-03T07:06:40.295Z,8.60
2019-05-03T07:09:22.424Z,8.70
2019-05-03T07:11:52.047Z,8.60
2019-05-03T07:14:21.600Z,8.50
2019-05-03T07:16:51.173Z,8.20
2019-05-03T07:19:21.745Z,8.20
2019-05-03T07:21:51.313Z,8.40
2019-05-03T07:24:20.885Z,8.60
2019-05-03T07:26:50.439Z,8.60
2019-05-03T07:29:20.001Z,8.50
2019-05-03T07:31:49.524Z,8.70
2019-05-03T07:34:19.058Z,8.90
2019-05-03T07:36:48.618Z,9.10
2019-05-03T07:39:18.258Z,9.10
2019-05-03T07:41:47.806Z,9.40
2019-05-03T07:44:17.348Z,9.40
2019-05-03T07:46:46.917Z,9.10
2019-05-03T07:49:16.498Z,9.30
2019-05-03T07:51:46.060Z,9.50
2019-05-03T07:54:15.813Z,9.40
2019-05-03T07:56:56.512Z,9.30
2019-05-03T07:59:26.085Z,9.40
2019-05-03T08:01:57.149Z,9.40
2019-05-03T08:04:26.813Z,9.20
2019-05-03T08:06:56.417Z,9.20
2019-05-03T08:09:26.017Z,9.40
2019-05-03T08:11:55.549Z,9.60
2019-05-03T08:14:25.322Z,9.90
2019-05-03T08:16:55.082Z,10.00
2019-05-03T08:19:27.053Z,10.30
2019-05-03T08:21:56.673Z,10.40
2019-05-03T08:24:26.439Z,10.30
2019-05-03T08:26:55.992Z,10.40
2019-05-03T08:29:25.542Z,10.40
2019-05-03T08:32:02.065Z,10.50
2019-05-03T08:34:45.415Z,10.40
2019-05-03T08:37:45.288Z,10.70
2019-05-03T08:40:15.649Z,10.70
2019-05-03T08:42:45.339Z,10.90
2019-05-03T08:45:14.969Z,11.20
2019-05-03T08:47:45.145Z,11.30
2019-05-03T08:50:21.198Z,11.50
2019-05-03T08:52:47.252Z,11.10
2019-05-03T08:55:16.765Z,10.50
2019-05-03T08:57:46.365Z,10.60
2019-05-03T09:00:17.008Z,10.60
2019-05-03T09:02:46.586Z,10.80
2019-05-03T09:05:18.550Z,11.10
2019-05-03T09:07:50.460Z,11.20
2019-05-03T09:10:25.209Z,11.00
2019-05-03T09:13:08.562Z,11.20
2019-05-03T09:15:39.709Z,11.50
2019-05-03T09:18:09.327Z,11.60
2019-05-03T09:20:38.862Z,11.50
2019-05-03T09:23:08.509Z,11.60
2019-05-03T09:25:38.153Z,11.70
2019-05-03T09:28:07.916Z,11.30
2019-05-03T09:30:37.725Z,11.40
2019-05-03T09:33:09.123Z,11.20
2019-05-03T09:35:39.232Z,11.30
2019-05-03T09:38:08.845Z,11.40
2019-05-03T09:40:38.437Z,11.60
2019-05-03T09:43:08.058Z,11.30
2019-05-03T09:45:37.651Z,11.00
2019-05-03T09:48:08.189Z,10.90
2019-05-03T09:50:37.837Z,11.10
2019-05-03T09:53:09.021Z,11.40
2019-05-03T09:55:40.182Z,11.90
2019-05-03T09:58:09.821Z,11.80
2019-05-03T10:00:39.438Z,12.20
2019-05-03T10:03:09.098Z,12.80
2019-05-03T10:05:38.713Z,12.70
2019-05-03T10:08:08.311Z,12.50
2019-05-03T10:10:55.916Z,12.40
2019-05-03T10:13:27.138Z,11.90
2019-05-03T10:15:57.033Z,11.70
2019-05-03T10:18:26.759Z,12.00
2019-05-03T10:20:56.527Z,12.50
2019-05-03T10:23:45.187Z,12.70
2019-05-03T10:26:15.266Z,12.90
2019-05-03T10:28:46.218Z,13.30
2019-05-03T10:31:15.911Z,13.20
2019-05-03T10:33:53.745Z,13.20
2019-05-03T10:36:24.960Z,13.00
2019-05-03T10:38:55.505Z,12.70
2019-05-03T10:41:25.257Z,12.60
2019-05-03T10:43:55.633Z,12.80
2019-05-03T10:46:25.516Z,12.60
2019-05-03T10:48:55.860Z,12.20
2019-05-03T10:51:28.198Z,12.30
2019-05-03T10:53:59.800Z,12.20
2019-05-03T10:56:48.543Z,12.40
2019-05-03T10:59:19.417Z,12.70
2019-05-03T11:01:57.589Z,13.10
2019-05-03T11:04:27.738Z,13.20
2019-05-03T11:06:58.747Z,13.30
2019-05-03T11:09:28.287Z,13.00
2019-05-03T11:12:00.003Z,12.50
2019-05-03T11:14:30.064Z,11.90
2019-05-03T11:17:00.624Z,11.70
2019-05-03T11:19:30.543Z,12.10
2019-05-03T11:22:00.175Z,12.50
2019-05-03T11:24:29.791Z,12.80
2019-05-03T11:27:01.543Z,12.70
2019-05-03T11:29:31.096Z,12.30
2019-05-03T11:32:09.122Z,12.30
2019-05-03T11:34:56.932Z,12.20
2019-05-03T11:37:51.812Z,12.10
2019-05-03T11:40:21.619Z,12.50
2019-05-03T11:42:52.685Z,13.00
2019-05-03T11:45:24.494Z,13.10
2019-05-03T11:47:55.058Z,12.90
2019-05-03T11:50:25.347Z,12.90
2019-05-03T11:52:55.528Z,12.70
2019-05-03T11:55:26.979Z,12.20
2019-05-03T11:57:57.631Z,12.80
2019-05-03T12:00:33.216Z,13.40
2019-05-03T12:03:11.422Z,13.60
2019-05-03T12:05:42.860Z,14.10
2019-05-03T12:08:14.632Z,14.40
2019-05-03T12:10:55.433Z,14.40
2019-05-03T12:13:24.581Z,14.90
2019-05-03T12:15:55.250Z,14.40
2019-05-03T12:18:25.761Z,13.60
2019-05-03T12:20:57.245Z,13.20
2019-05-03T12:23:31.674Z,12.90
2019-05-03T12:26:00.366Z,12.60
2019-05-03T12:28:30.314Z,12.40
2019-05-03T12:30:59.966Z,12.20
2019-05-03T12:33:29.562Z,12.00
2019-05-03T12:35:59.133Z,11.60
2019-05-03T12:38:28.718Z,11.20
2019-05-03T12:40:58.329Z,11.00
2019-05-03T12:43:27.906Z,11.30
2019-05-03T12:45:57.448Z,11.60
2019-05-03T12:48:27.102Z,11.30
2019-05-03T12:50:56.984Z,11.10
2019-05-03T12:53:26.808Z,11.10
2019-05-03T12:55:56.473Z,11.00
2019-05-03T12:58:47.147Z,11.10
2019-05-03T13:01:40.228Z,11.20
2019-05-03T13:04:09.557Z,11.20
2019-05-03T13:06:42.070Z,11.40
2019-05-03T13:09:12.203Z,11.60
2019-05-03T13:11:53.022Z,11.60
2019-05-03T13:14:15.693Z,11.60
2019-05-03T13:16:45.509Z,11.50
2019-05-03T13:19:16.064Z,11.80
2019-05-03T13:21:45.621Z,11.80
2019-05-03T13:24:22.849Z,12.10
2019-05-03T13:26:46.388Z,12.50
2019-05-03T13:29:16.017Z,12.80
2019-05-03T13:31:58.405Z,12.90
2019-05-03T13:34:16.864Z,13.10
2019-05-03T13:36:46.449Z,13.20
2019-05-03T13:39:16.110Z,13.00
2019-05-03T13:41:45.776Z,12.80
2019-05-03T13:44:16.389Z,12.80
2019-05-03T13:46:45.928Z,12.60
2019-05-03T13:49:15.961Z,12.20
2019-05-03T13:51:46.653Z,12.00
2019-05-03T13:54:16.200Z,12.10
2019-05-03T13:56:45.731Z,12.00
2019-05-03T13:59:19.820Z,12.00
2019-05-03T14:01:46.621Z,11.80
2019-05-03T14:04:16.141Z,11.80
2019-05-03T14:06:45.766Z,11.60
2019-05-03T14:09:15.385Z,11.40
2019-05-03T14:11:44.957Z,11.30
2019-05-03T14:14:15.204Z,11.30
2019-05-03T14:16:45.260Z,11.10
2019-05-03T14:19:20.961Z,11.30
2019-05-03T14:21:54.626Z,11.50
2019-05-03T14:24:24.605Z,12.10
2019-05-03T14:26:55.260Z,12.40
2019-05-03T14:29:25.254Z,12.90
2019-05-03T14:31:55.065Z,12.60
2019-05-03T14:34:25.724Z,12.70
2019-05-03T14:36:55.660Z,12.50
2019-05-03T14:39:25.467Z,11.90
2019-05-03T14:41:55.565Z,12.00
2019-05-03T14:44:25.441Z,11.80
2019-05-03T14:46:58.784Z,11.60
2019-05-03T14:49:26.413Z,11.40
2019-05-03T14:51:56.764Z,11.00
2019-05-03T14:54:29.063Z,11.00
2019-05-03T14:57:16.927Z,11.00
2019-05-03T15:00:17.236Z,11.10
2019-05-03T15:02:51.192Z,11.10
2019-05-03T15:05:21.127Z,11.10
2019-05-03T15:07:50.718Z,11.10
2019-05-03T15:10:20.390Z,11.40
2019-05-03T15:12:50.018Z,11.50
2019-05-03T15:15:19.560Z,11.40
2019-05-03T15:17:49.113Z,11.40
2019-05-03T15:20:18.737Z,11.30
2019-05-03T15:22:48.269Z,11.40
2019-05-03T15:25:18.225Z,11.20
2019-05-03T15:27:48.636Z,11.20
2019-05-03T15:30:18.407Z,11.20
2019-05-03T15:32:57.656Z,11.20
2019-05-03T15:35:19.225Z,11.00
2019-05-03T15:37:48.810Z,10.80
2019-05-03T15:40:19.056Z,10.80
2019-05-03T15:42:54.707Z,11.00
2019-05-03T15:45:54.415Z,10.90
2019-05-03T15:48:26.967Z,10.80
2019-05-03T15:50:56.530Z,10.70
2019-05-03T15:53:26.170Z,10.90
2019-05-03T15:55:55.768Z,10.70
2019-05-03T15:58:26.298Z,10.70
2019-05-03T16:00:55.845Z,10.70
2019-05-03T16:03:25.454Z,10.70
2019-05-03T16:05:55.634Z,10.60
2019-05-03T16:08:26.450Z,10.70
2019-05-03T16:10:55.961Z,10.80
2019-05-03T16:13:25.557Z,10.70
2019-05-03T16:15:55.415Z,10.80
2019-05-03T16:18:25.075Z,10.70
2019-05-03T16:20:54.851Z,10.70
2019-05-03T16:23:25.241Z,10.70
2019-05-03T16:25:54.950Z,10.70
2019-05-03T16:28:31.205Z,10.60
2019-05-03T16:31:05.172Z,10.70
2019-05-03T16:33:35.751Z,10.70
2019-05-03T16:36:06.421Z,10.50
2019-05-03T16:38:35.974Z,10.80
2019-05-03T16:41:05.516Z,10.80
2019-05-03T16:43:35.149Z,10.90
2019-05-03T16:46:05.599Z,10.90
2019-05-03T16:51:17.223Z,10.90
2019-05-03T16:53:47.021Z,11.00
2019-05-03T16:56:17.098Z,11.10
2019-05-03T16:58:46.883Z,11.20
2019-05-03T17:01:18.103Z,11.00
2019-05-03T17:03:52.555Z,11.00
2019-05-03T17:06:30.143Z,11.10
2019-05-03T17:09:14.596Z,11.10
2019-05-03T17:12:05.217Z,10.90
2019-05-03T17:14:34.735Z,10.90
2019-05-03T17:17:04.696Z,10.80
2019-05-03T17:19:35.887Z,11.10
2019-05-03T17:22:05.707Z,11.20
2019-05-03T17:24:35.424Z,11.10
2019-05-03T17:27:05.344Z,11.10
2019-05-03T17:29:35.167Z,10.80
2019-05-03T17:32:05.073Z,10.90
2019-05-03T17:34:36.505Z,10.70
2019-05-03T17:37:06.144Z,10.70
2019-05-03T17:39:48.317Z,10.40
2019-05-03T17:42:36.982Z,10.40
2019-05-03T17:45:06.725Z,10.50
2019-05-03T17:47:36.306Z,10.40
2019-05-03T17:50:06.071Z,10.20
2019-05-03T17:52:58.147Z,10.00
2019-05-03T17:55:44.588Z,10.20
2019-05-03T17:58:24.298Z,10.10
2019-05-03T18:01:11.470Z,10.10
2019-05-03T18:03:44.822Z,10.10
2019-05-03T18:06:21.093Z,10.10
2019-05-03T18:09:04.469Z,10.00
2019-05-03T18:11:41.263Z,10.00
2019-05-03T18:14:10.891Z,9.90
2019-05-03T18:16:40.551Z,9.80
2019-05-03T18:19:10.059Z,9.80
2019-05-03T18:21:39.631Z,9.70
2019-05-03T18:24:09.188Z,9.60
2019-05-03T18:26:38.750Z,9.60
2019-05-03T18:29:08.384Z,9.60
2019-05-03T18:31:37.948Z,9.60
2019-05-03T18:34:18.677Z,9.60
2019-05-03T18:36:38.744Z,9.70
2019-05-03T18:39:09.077Z,9.60
2019-05-03T18:41:39.334Z,9.70
2019-05-03T18:44:16.015Z,9.60
2019-05-03T18:46:55.080Z,9.60
2019-05-03T18:49:24.931Z,9.60
2019-05-03T18:51:55.362Z,9.50
2019-05-03T18:54:25.076Z,9.50
2019-05-03T18:56:55.726Z,9.60
2019-05-03T18:59:25.537Z,9.60
2019-05-03T19:01:55.324Z,9.80
2019-05-03T19:04:37.693Z,9.60
2019-05-03T19:07:07.965Z,9.60
2019-05-03T19:09:55.436Z,9.50
2019-05-03T19:12:50.515Z,9.50
2019-05-03T19:15:21.042Z,9.40
2019-05-03T19:17:55.208Z,9.40
2019-05-03T19:20:24.812Z,9.50
2019-05-03T19:22:54.500Z,9.40
2019-05-03T19:25:25.542Z,9.50
2019-05-03T19:27:55.350Z,9.30
2019-05-03T19:30:24.917Z,9.20
2019-05-03T19:32:55.150Z,9.30
2019-05-03T19:35:27.735Z,9.30
2019-05-03T19:37:57.509Z,9.40
2019-05-03T19:40:27.147Z,9.40
2019-05-03T19:42:56.859Z,9.50
2019-05-03T19:45:26.371Z,9.30
2019-05-03T19:47:55.970Z,9.40
2019-05-03T19:50:27.328Z,9.30
2019-05-03T19:53:11.601Z,9.10
2019-05-03T19:55:41.334Z,8.90
2019-05-03T19:58:14.424Z,8.80
2019-05-03T20:01:08.531Z,8.70
2019-05-03T20:03:45.573Z,8.70
2019-05-03T20:06:37.055Z,8.70
2019-05-03T20:09:12.307Z,8.60
2019-05-03T20:11:42.287Z,8.70
2019-05-03T20:14:12.029Z,8.70
2019-05-03T20:16:41.563Z,8.80
2019-05-03T20:19:18.766Z,8.80
2019-05-03T20:21:42.348Z,8.70
2019-05-03T20:24:11.886Z,8.70
2019-05-03T20:26:41.416Z,8.70
2019-05-03T20:29:11.559Z,8.60
2019-05-03T20:31:41.080Z,8.60
2019-05-03T20:34:10.666Z,8.70
2019-05-03T20:36:40.212Z,8.60
2019-05-03T20:39:09.955Z,8.60
2019-05-03T20:41:40.184Z,8.40
2019-05-03T20:44:31.612Z,8.40
2019-05-03T20:47:17.905Z,8.40
2019-05-03T20:50:06.654Z,8.50
2019-05-03T20:52:36.883Z,8.50
2019-05-03T20:55:06.590Z,8.40
2019-05-03T20:57:37.139Z,8.30
2019-05-03T21:00:07.117Z,8.40
2019-05-03T21:02:50.172Z,8.30
2019-05-03T21:05:10.137Z,8.30
2019-05-03T21:07:39.722Z,8.40
2019-05-03T21:10:09.728Z,8.30
2019-05-03T21:12:39.296Z,8.40
2019-05-03T21:15:15.469Z,8.30
2019-05-03T21:17:52.233Z,8.30
2019-05-03T21:20:45.241Z,8.20
2019-05-03T21:23:15.646Z,8.30
2019-05-03T21:26:09.438Z,8.30
2019-05-03T21:28:34.544Z,8.30
2019-05-03T21:31:05.535Z,8.20
2019-05-03T21:33:35.601Z,8.10
2019-05-03T21:36:05.301Z,8.10
2019-05-03T21:38:35.643Z,8.00
2019-05-03T21:41:05.447Z,8.10
2019-05-03T21:43:35.079Z,8.10
2019-05-03T21:46:15.042Z,8.10
2019-05-03T21:49:06.659Z,8.10
2019-05-03T21:51:36.176Z,8.20
2019-05-03T21:54:06.948Z,8.10
2019-05-03T21:56:36.613Z,8.10
2019-05-03T21:59:06.152Z,8.10
2019-05-03T22:01:38.301Z,8.20
2019-05-03T22:04:07.885Z,8.20
2019-05-03T22:06:37.436Z,8.10
2019-05-03T22:09:07.140Z,8.10
2019-05-03T22:11:38.283Z,8.20
2019-05-03T22:14:12.012Z,8.10
2019-05-03T22:16:51.089Z,8.10
2019-05-03T22:19:20.682Z,8.20
2019-05-03T22:22:08.000Z,8.20
2019-05-03T22:24:42.261Z,8.30
2019-05-03T22:27:15.936Z,8.20
2019-05-03T22:29:45.561Z,8.30
2019-05-03T22:32:15.568Z,8.30
2019-05-03T22:34:45.281Z,8.40
2019-05-03T22:37:16.597Z,8.40
2019-05-03T22:39:47.721Z,8.30
2019-05-03T22:42:17.426Z,8.30
2019-05-03T22:44:46.976Z,8.10
2019-05-03T22:47:16.497Z,7.90
2019-05-03T22:52:35.175Z,8.00
2019-05-03T22:55:05.489Z,8.10
2019-05-03T22:57:35.116Z,8.00
2019-05-03T23:00:06.324Z,8.00
2019-05-03T23:02:37.539Z,8.00
2019-05-03T23:05:07.867Z,8.10
2019-05-03T23:07:37.615Z,8.00
2019-05-03T23:10:07.371Z,7.80
2019-05-03T23:12:36.901Z,7.80
2019-05-03T23:15:07.322Z,7.80
2019-05-03T23:17:36.956Z,7.80
2019-05-03T23:20:14.928Z,7.80
2019-05-03T23:22:45.533Z,7.80
2019-05-03T23:25:15.227Z,7.80
2019-05-03T23:27:44.798Z,7.90
2019-05-03T23:30:15.384Z,7.90
2019-05-03T23:32:45.291Z,7.90
2019-05-03T23:35:15.681Z,8.00
2019-05-03T23:37:45.250Z,8.00
2019-05-03T23:40:15.068Z,8.00
2019-05-03T23:42:44.602Z,8.10
2019-05-03T23:45:14.877Z,7.80
2019-05-03T23:47:46.689Z,7.90
2019-05-03T23:50:20.727Z,7.80
2019-05-03T23:52:50.301Z,7.90
2019-05-03T23:55:28.615Z,7.90
2019-05-03T23:57:58.183Z,7.80
